createdAt,value
2022-12-15T00:00:14.861Z,-4.26
2022-12-15T00:03:26.276Z,-4.44
2022-12-15T00:06:13.548Z,-4.57
2022-12-15T00:09:00.447Z,-4.52
2022-12-15T00:11:47.607Z,-2.70
2022-12-15T00:14:35.042Z,-0.80
2022-12-15T00:17:22.108Z,0.37
2022-12-15T00:20:09.173Z,1.23
2022-12-15T00:22:56.335Z,1.81
2022-12-15T00:25:43.089Z,1.96
2022-12-15T00:28:30.100Z,1.92
2022-12-15T00:31:18.450Z,2.03
2022-12-15T00:34:05.667Z,2.18
2022-12-15T00:36:52.473Z,2.28
2022-12-15T00:39:21.198Z,2.36
2022-12-15T00:41:49.539Z,2.40
2022-12-15T00:44:20.740Z,2.82
2022-12-15T00:46:55.449Z,3.39
2022-12-15T00:49:45.528Z,3.82
2022-12-15T00:52:34.487Z,4.18
2022-12-15T00:55:23.419Z,4.25
2022-12-15T00:58:12.309Z,4.20
2022-12-15T01:00:59.733Z,3.73
2022-12-15T01:03:47.244Z,3.42
2022-12-15T01:06:38.123Z,3.16
2022-12-15T01:09:33.299Z,2.89
2022-12-15T01:12:20.134Z,2.69
2022-12-15T01:15:07.425Z,2.51
2022-12-15T01:17:54.428Z,2.37
2022-12-15T01:20:23.007Z,2.29
2022-12-15T01:22:55.999Z,2.23
2022-12-15T01:25:25.727Z,2.18
2022-12-15T01:27:54.001Z,2.07
2022-12-15T01:30:25.670Z,1.93
2022-12-15T01:32:54.358Z,1.91
2022-12-15T01:35:22.975Z,1.92
2022-12-15T01:37:51.528Z,1.87
2022-12-15T01:40:40.274Z,1.87
2022-12-15T01:43:24.725Z,1.89
2022-12-15T01:46:06.274Z,1.86
2022-12-15T01:48:38.307Z,1.84
2022-12-15T01:51:16.185Z,1.84
2022-12-15T01:53:53.997Z,1.90
2022-12-15T01:56:24.021Z,2.27
2022-12-15T01:58:55.404Z,2.61
2022-12-15T02:01:24.019Z,2.85
2022-12-15T02:03:52.467Z,3.03
2022-12-15T02:06:22.476Z,3.21
2022-12-15T02:08:54.880Z,3.35
2022-12-15T02:11:33.223Z,3.49
2022-12-15T02:14:05.787Z,3.62
2022-12-15T02:17:02.153Z,4.16
2022-12-15T02:19:36.672Z,4.49
2022-12-15T02:22:22.336Z,4.71
2022-12-15T02:25:12.449Z,4.91
2022-12-15T02:28:04.170Z,4.80
2022-12-15T02:30:38.568Z,4.72
2022-12-15T02:33:08.923Z,5.03
2022-12-15T02:36:08.818Z,5.08
2022-12-15T02:38:39.372Z,3.71
2022-12-15T02:41:35.872Z,2.41
2022-12-15T02:44:20.851Z,1.20
2022-12-15T02:46:55.987Z,0.29
2022-12-15T02:50:01.353Z,-0.43
2022-12-15T02:52:55.635Z,-1.17
2022-12-15T02:56:00.799Z,-1.76
2022-12-15T02:58:45.124Z,-2.32
2022-12-15T03:01:33.676Z,-2.76
2022-12-15T03:04:04.636Z,-3.17
2022-12-15T03:06:32.962Z,-3.49
2022-12-15T03:09:01.404Z,-3.78
2022-12-15T03:11:30.699Z,-4.06
2022-12-15T03:13:59.162Z,-4.31
2022-12-15T03:16:27.561Z,-4.54
2022-12-15T03:18:56.014Z,-4.45
2022-12-15T03:21:24.199Z,-2.87
2022-12-15T03:23:52.581Z,-1.18
2022-12-15T03:26:21.222Z,0.11
2022-12-15T03:28:49.472Z,0.94
2022-12-15T03:31:17.917Z,1.46
2022-12-15T03:33:46.866Z,1.46
2022-12-15T03:36:15.117Z,1.29
2022-12-15T03:38:43.414Z,1.34
2022-12-15T03:41:12.194Z,1.36
2022-12-15T03:43:40.423Z,1.28
2022-12-15T03:46:08.786Z,1.36
2022-12-15T03:48:37.957Z,1.45
2022-12-15T03:51:06.564Z,1.51
2022-12-15T03:53:34.911Z,1.52
2022-12-15T03:56:03.413Z,1.42
2022-12-15T03:58:31.692Z,1.37
2022-12-15T04:01:09.278Z,1.25
2022-12-15T04:03:38.069Z,1.01
2022-12-15T04:06:06.581Z,0.82
2022-12-15T04:08:34.872Z,0.66
2022-12-15T04:11:03.184Z,0.53
2022-12-15T04:13:31.733Z,0.43
2022-12-15T04:16:02.928Z,0.38
2022-12-15T04:18:31.343Z,0.34
2022-12-15T04:20:59.563Z,0.32
2022-12-15T04:23:28.384Z,0.33
2022-12-15T04:26:15.507Z,0.35
2022-12-15T04:29:02.464Z,0.35
2022-12-15T04:31:52.319Z,0.33
2022-12-15T04:34:42.284Z,0.31
2022-12-15T04:37:32.641Z,0.32
2022-12-15T04:40:19.678Z,0.35
2022-12-15T04:43:07.295Z,0.38
2022-12-15T04:45:54.319Z,0.42
2022-12-15T04:48:41.347Z,0.49
2022-12-15T04:51:28.069Z,0.55
2022-12-15T04:54:15.168Z,0.61
2022-12-15T04:57:02.081Z,0.65
2022-12-15T04:59:49.159Z,0.68
2022-12-15T05:02:36.404Z,0.71
2022-12-15T05:05:23.887Z,0.74
2022-12-15T05:08:10.844Z,0.77
2022-12-15T05:10:57.918Z,0.83
2022-12-15T05:13:44.748Z,0.86
2022-12-15T05:16:31.708Z,0.89
2022-12-15T05:19:18.526Z,0.93
2022-12-15T05:22:05.549Z,0.96
2022-12-15T05:24:52.739Z,0.98
2022-12-15T05:27:39.924Z,0.97
2022-12-15T05:30:27.916Z,0.95
2022-12-15T05:32:56.240Z,0.92
2022-12-15T05:35:24.870Z,0.89
2022-12-15T05:37:53.727Z,0.88
2022-12-15T05:40:22.021Z,0.88
2022-12-15T05:42:50.495Z,0.90
2022-12-15T05:45:18.696Z,0.92
2022-12-15T05:47:51.631Z,0.94
2022-12-15T05:50:21.097Z,0.94
2022-12-15T05:52:49.939Z,0.93
2022-12-15T05:55:19.043Z,0.90
2022-12-15T05:57:54.417Z,0.86
2022-12-15T06:00:23.133Z,0.81
2022-12-15T06:02:51.414Z,0.79
2022-12-15T06:05:19.677Z,0.77
2022-12-15T06:07:47.929Z,0.75
2022-12-15T06:10:16.235Z,0.73
2022-12-15T06:12:44.455Z,0.70
2022-12-15T06:15:13.022Z,0.67
2022-12-15T06:17:41.253Z,0.65
2022-12-15T06:20:09.976Z,0.64
2022-12-15T06:22:38.976Z,0.63
2022-12-15T06:25:07.655Z,0.63
2022-12-15T06:27:37.850Z,0.64
2022-12-15T06:30:06.529Z,0.64
2022-12-15T06:32:36.389Z,0.64
2022-12-15T06:35:05.044Z,0.63
2022-12-15T06:37:33.308Z,0.62
2022-12-15T06:40:02.242Z,0.63
2022-12-15T06:42:30.595Z,0.62
2022-12-15T06:44:58.944Z,0.63
2022-12-15T06:47:27.203Z,0.64
2022-12-15T06:49:56.056Z,0.64
2022-12-15T06:52:24.243Z,0.62
2022-12-15T06:54:52.537Z,0.62
2022-12-15T06:57:20.997Z,0.62
2022-12-15T06:59:49.221Z,0.63
2022-12-15T07:02:22.341Z,0.65
2022-12-15T07:04:53.647Z,0.66
2022-12-15T07:07:21.979Z,0.68
2022-12-15T07:09:50.271Z,0.68
2022-12-15T07:12:18.837Z,0.69
2022-12-15T07:14:53.053Z,0.69
2022-12-15T07:17:22.183Z,0.70
2022-12-15T07:19:50.678Z,0.72
2022-12-15T07:22:20.433Z,0.73
2022-12-15T07:24:48.775Z,0.74
2022-12-15T07:27:18.234Z,0.75
2022-12-15T07:29:46.470Z,0.76
2022-12-15T07:32:15.904Z,0.77
2022-12-15T07:34:44.705Z,0.78
2022-12-15T07:37:13.366Z,0.79
2022-12-15T07:39:41.984Z,0.80
2022-12-15T07:42:10.381Z,0.82
2022-12-15T07:44:38.838Z,0.84
2022-12-15T07:47:07.266Z,0.87
2022-12-15T07:49:35.476Z,0.85
2022-12-15T07:52:04.439Z,0.86
2022-12-15T07:54:32.863Z,0.87
2022-12-15T07:57:02.791Z,0.89
2022-12-15T07:59:31.039Z,0.90
2022-12-15T08:02:00.800Z,0.90
2022-12-15T08:04:29.157Z,0.92
2022-12-15T08:06:58.599Z,0.94
2022-12-15T08:09:26.877Z,0.99
2022-12-15T08:11:55.194Z,1.03
2022-12-15T08:14:24.281Z,1.06
2022-12-15T08:16:53.641Z,1.08
2022-12-15T08:19:21.939Z,1.08
2022-12-15T08:21:50.856Z,1.07
2022-12-15T08:24:19.552Z,1.07
2022-12-15T08:26:50.503Z,1.09
2022-12-15T08:32:07.741Z,1.12
2022-12-15T08:34:36.285Z,1.13
2022-12-15T08:37:04.521Z,1.15
2022-12-15T08:39:32.781Z,1.19
2022-12-15T08:42:01.081Z,1.26
2022-12-15T08:44:29.324Z,1.35
2022-12-15T08:46:57.560Z,1.45
2022-12-15T08:49:25.927Z,1.56
2022-12-15T08:51:54.200Z,1.66
2022-12-15T08:54:22.607Z,1.78
2022-12-15T08:56:50.976Z,1.87
2022-12-15T08:59:19.549Z,1.95
2022-12-15T09:01:48.473Z,2.01
2022-12-15T09:04:17.316Z,2.09
2022-12-15T09:06:46.767Z,2.18
2022-12-15T09:09:19.818Z,2.30
2022-12-15T09:11:49.313Z,2.46
2022-12-15T09:14:18.965Z,2.63
2022-12-15T09:16:50.729Z,2.84
2022-12-15T09:19:19.318Z,3.04
2022-12-15T09:21:48.414Z,3.23
2022-12-15T09:24:25.841Z,3.39
2022-12-15T09:27:01.238Z,3.54
2022-12-15T09:29:29.570Z,3.72
2022-12-15T09:31:57.968Z,3.87
2022-12-15T09:34:26.469Z,4.03
2022-12-15T09:36:54.757Z,4.16
2022-12-15T09:39:23.742Z,4.24
2022-12-15T09:41:55.505Z,4.33
2022-12-15T09:44:26.144Z,4.42
2022-12-15T09:47:17.708Z,4.36
2022-12-15T09:49:56.510Z,4.35
2022-12-15T09:52:27.921Z,4.40
2022-12-15T09:54:57.997Z,4.45
2022-12-15T09:57:43.016Z,4.54
2022-12-15T10:00:26.113Z,4.62
2022-12-15T10:03:28.299Z,4.74
2022-12-15T10:06:16.026Z,4.81
2022-12-15T10:09:02.102Z,4.87
2022-12-15T10:11:50.980Z,4.97
2022-12-15T10:14:42.346Z,5.11
2022-12-15T10:17:33.729Z,5.20
2022-12-15T10:20:17.471Z,4.61
2022-12-15T10:22:46.013Z,3.97
2022-12-15T10:29:08.242Z,3.00
2022-12-15T10:31:51.471Z,2.70
2022-12-15T10:34:29.755Z,2.49
2022-12-15T10:36:59.001Z,2.33
2022-12-15T10:39:41.435Z,2.18
2022-12-15T10:42:15.847Z,2.07
2022-12-15T10:44:50.273Z,1.97
2022-12-15T10:47:26.228Z,1.90
2022-12-15T10:49:56.566Z,1.83
2022-12-15T10:52:43.029Z,1.74
2022-12-15T10:55:38.835Z,1.65
2022-12-15T10:58:23.266Z,1.61
2022-12-15T11:01:15.309Z,1.67
2022-12-15T11:03:44.239Z,1.75
2022-12-15T11:06:20.479Z,1.78
2022-12-15T11:08:52.680Z,1.83
2022-12-15T11:11:53.795Z,1.93
2022-12-15T11:14:28.436Z,2.07
2022-12-15T11:16:59.402Z,2.21
2022-12-15T11:20:00.033Z,2.31
2022-12-15T11:23:03.166Z,2.37
2022-12-15T11:25:51.259Z,2.43
2022-12-15T11:28:38.901Z,2.45
2022-12-15T11:31:18.015Z,2.58
2022-12-15T11:33:46.413Z,2.75
2022-12-15T11:36:25.780Z,2.93
2022-12-15T11:39:03.048Z,3.13
2022-12-15T11:41:54.043Z,3.29
2022-12-15T11:44:32.634Z,3.38
2022-12-15T11:47:19.621Z,3.46
2022-12-15T11:50:29.704Z,3.56
2022-12-15T11:53:23.693Z,3.71
2022-12-15T11:56:19.265Z,3.90
2022-12-15T11:59:16.245Z,4.08
2022-12-15T12:02:02.943Z,4.23
2022-12-15T12:04:44.773Z,4.34
2022-12-15T12:07:43.924Z,4.47
2022-12-15T12:10:46.415Z,4.57
2022-12-15T12:13:46.645Z,4.66
2022-12-15T12:16:29.263Z,4.70
2022-12-15T12:19:03.064Z,4.69
2022-12-15T12:21:47.051Z,4.73
2022-12-15T12:24:30.441Z,4.80
2022-12-15T12:27:09.850Z,5.02
2022-12-15T12:29:44.798Z,5.54
2022-12-15T12:32:40.467Z,6.39
2022-12-15T12:35:56.678Z,7.45
2022-12-15T12:38:31.437Z,8.57
2022-12-15T12:41:27.402Z,9.24
2022-12-15T12:44:00.901Z,9.41
2022-12-15T12:46:34.425Z,9.12
2022-12-15T12:49:13.461Z,8.55
2022-12-15T12:51:49.375Z,7.87
2022-12-15T12:54:36.090Z,7.18
2022-12-15T12:57:13.449Z,6.51
2022-12-15T12:59:56.276Z,6.03
2022-12-15T13:02:24.949Z,5.57
2022-12-15T13:05:00.609Z,5.19
2022-12-15T13:07:31.162Z,4.81
2022-12-15T13:10:08.641Z,4.52
2022-12-15T13:12:54.753Z,4.29
2022-12-15T13:15:29.457Z,4.08
2022-12-15T13:18:07.175Z,3.92
2022-12-15T13:20:37.738Z,3.79
2022-12-15T13:23:21.510Z,3.67
2022-12-15T13:25:55.885Z,3.53
2022-12-15T13:28:36.128Z,3.40
2022-12-15T13:31:17.141Z,3.26
2022-12-15T13:33:52.363Z,3.13
2022-12-15T13:36:39.565Z,3.00
2022-12-15T13:39:17.168Z,2.85
2022-12-15T13:44:52.725Z,2.58
2022-12-15T13:47:28.007Z,2.47
2022-12-15T13:50:27.148Z,2.34
2022-12-15T13:53:18.383Z,2.16
2022-12-15T13:56:17.493Z,1.96
2022-12-15T13:58:57.841Z,1.70
2022-12-15T14:01:32.758Z,1.47
2022-12-15T14:04:15.867Z,1.21
2022-12-15T14:09:42.202Z,0.65
2022-12-15T14:12:13.824Z,0.42
2022-12-15T14:14:49.616Z,0.19
2022-12-15T14:17:19.841Z,-0.03
2022-12-15T14:19:51.006Z,-0.24
2022-12-15T14:22:30.619Z,-0.43
2022-12-15T14:25:03.594Z,-0.62
2022-12-15T14:27:33.938Z,-0.75
2022-12-15T14:30:17.615Z,-0.88
2022-12-15T14:32:49.329Z,-1.05
2022-12-15T14:35:27.762Z,-1.22
2022-12-15T14:37:58.377Z,-1.36
2022-12-15T14:40:29.856Z,-1.46
2022-12-15T14:42:58.563Z,-1.55
2022-12-15T14:45:32.505Z,-1.63
2022-12-15T14:48:39.473Z,-1.71
2022-12-15T14:51:01.610Z,-1.82
2022-12-15T14:53:37.462Z,-1.92
2022-12-15T14:56:33.410Z,-2.03
2022-12-15T14:59:20.875Z,-2.08
2022-12-15T15:02:10.288Z,-2.13
2022-12-15T15:03:06.627Z,3.46
2022-12-15T15:04:39.102Z,-2.22
2022-12-15T15:07:17.476Z,-2.36
2022-12-15T15:09:46.442Z,-2.51
2022-12-15T15:12:20.633Z,-2.70
2022-12-15T15:14:59.228Z,-2.87
2022-12-15T15:17:39.185Z,-3.02
2022-12-15T15:20:22.392Z,-3.19
2022-12-15T15:23:10.980Z,-3.35
2022-12-15T15:25:42.726Z,-3.48
2022-12-15T15:28:21.770Z,-3.61
2022-12-15T15:30:51.526Z,-3.74
2022-12-15T15:33:26.247Z,-3.81
2022-12-15T15:36:00.017Z,-3.86
2022-12-15T15:38:37.961Z,-3.94
2022-12-15T15:41:19.994Z,-4.01
2022-12-15T15:43:49.583Z,-4.08
2022-12-15T15:46:25.579Z,-4.12
2022-12-15T15:48:57.688Z,-4.15
2022-12-15T15:51:27.450Z,-4.19
2022-12-15T15:54:01.288Z,-4.24
2022-12-15T15:56:31.270Z,-4.28
2022-12-15T15:59:09.488Z,-4.31
2022-12-15T16:01:37.848Z,-4.35
2022-12-15T16:04:06.914Z,-4.17
2022-12-15T16:06:35.930Z,-2.70
2022-12-15T16:09:07.143Z,-1.14
2022-12-15T16:11:36.594Z,-0.08
2022-12-15T16:14:11.276Z,0.10
2022-12-15T16:16:41.923Z,-0.52
2022-12-15T16:19:12.205Z,-1.28
2022-12-15T16:21:43.054Z,-1.90
2022-12-15T16:24:17.713Z,-2.45
2022-12-15T16:26:49.725Z,-2.85
2022-12-15T16:29:20.528Z,-3.15
2022-12-15T16:31:49.223Z,-3.40
2022-12-15T16:34:19.307Z,-3.61
2022-12-15T16:36:47.888Z,-3.79
2022-12-15T16:39:31.278Z,-3.96
2022-12-15T16:41:59.711Z,-4.13
2022-12-15T16:44:29.563Z,-4.34
2022-12-15T16:46:59.121Z,-4.50
2022-12-15T16:49:33.911Z,-4.64
2022-12-15T16:52:15.172Z,-3.65
2022-12-15T16:54:46.805Z,-1.83
2022-12-15T16:57:15.530Z,-0.64
2022-12-15T16:59:43.796Z,0.16
2022-12-15T17:02:28.645Z,0.73
2022-12-15T17:04:57.515Z,1.32
2022-12-15T17:07:27.859Z,1.57
2022-12-15T17:09:56.941Z,1.97
2022-12-15T17:12:25.360Z,2.28
2022-12-15T17:14:53.657Z,2.48
2022-12-15T17:17:22.020Z,2.55
2022-12-15T17:20:27.945Z,2.69
2022-12-15T17:22:40.418Z,2.94
2022-12-15T17:25:32.062Z,3.25
2022-12-15T17:28:21.040Z,3.34
2022-12-15T17:30:51.707Z,3.66
2022-12-15T17:33:22.673Z,3.78
2022-12-15T17:36:01.544Z,3.31
2022-12-15T17:38:30.132Z,2.82
2022-12-15T17:40:58.448Z,2.51
2022-12-15T17:43:32.058Z,2.19
2022-12-15T17:46:04.154Z,1.88
2022-12-15T17:48:33.042Z,1.50
2022-12-15T17:51:01.316Z,1.26
2022-12-15T17:53:31.000Z,1.09
2022-12-15T17:55:59.511Z,0.88
2022-12-15T17:58:27.811Z,0.76
2022-12-15T18:00:56.534Z,0.70
2022-12-15T18:03:25.085Z,0.60
2022-12-15T18:05:53.845Z,0.61
2022-12-15T18:08:25.651Z,0.66
2022-12-15T18:10:58.095Z,0.66
2022-12-15T18:13:34.884Z,0.63
2022-12-15T18:16:04.053Z,0.68
2022-12-15T18:18:32.673Z,0.79
2022-12-15T18:21:08.142Z,0.82
2022-12-15T18:23:37.370Z,0.85
2022-12-15T18:26:05.930Z,0.85
2022-12-15T18:28:35.706Z,0.80
2022-12-15T18:31:14.986Z,0.83
2022-12-15T18:33:44.611Z,0.87
2022-12-15T18:36:13.719Z,0.87
2022-12-15T18:38:42.577Z,0.83
2022-12-15T18:41:17.332Z,0.84
2022-12-15T18:43:47.813Z,0.86
2022-12-15T18:46:18.907Z,0.96
2022-12-15T18:48:47.450Z,1.08
2022-12-15T18:51:18.917Z,1.16
2022-12-15T18:53:51.154Z,1.26
2022-12-15T18:56:21.769Z,1.36
2022-12-15T18:58:50.088Z,1.31
2022-12-15T19:01:18.713Z,1.42
2022-12-15T19:03:47.361Z,1.50
2022-12-15T19:06:35.025Z,1.47
2022-12-15T19:09:06.377Z,1.45
2022-12-15T19:11:34.775Z,1.47
2022-12-15T19:14:24.998Z,1.53
2022-12-15T19:17:12.610Z,1.48
2022-12-15T19:19:59.506Z,1.47
2022-12-15T19:22:29.679Z,1.49
2022-12-15T19:24:59.168Z,1.49
2022-12-15T19:27:27.650Z,1.44
2022-12-15T19:29:55.997Z,1.40
2022-12-15T19:32:24.444Z,1.43
2022-12-15T19:34:52.698Z,1.47
2022-12-15T19:37:30.212Z,1.47
2022-12-15T19:40:01.096Z,1.46
2022-12-15T19:43:39.589Z,1.45
2022-12-15T19:46:17.382Z,1.42
2022-12-15T19:48:46.362Z,1.40
2022-12-15T19:51:21.159Z,1.49
2022-12-15T19:53:49.891Z,1.53
2022-12-15T19:56:21.991Z,1.51
2022-12-15T19:58:50.546Z,1.50
2022-12-15T20:01:21.344Z,1.38
2022-12-15T20:03:52.892Z,1.31
2022-12-15T20:06:24.725Z,1.36
2022-12-15T20:08:55.969Z,1.32
2022-12-15T20:11:30.340Z,1.34
2022-12-15T20:13:59.060Z,1.35
2022-12-15T20:16:27.431Z,1.41
2022-12-15T20:18:56.250Z,1.48
2022-12-15T20:21:31.590Z,1.55
2022-12-15T20:24:15.140Z,1.55
2022-12-15T20:26:45.776Z,1.59
2022-12-15T20:29:28.368Z,1.58
2022-12-15T20:31:57.607Z,1.56
2022-12-15T20:34:26.264Z,1.50
2022-12-15T20:36:54.512Z,1.48
2022-12-15T20:39:26.955Z,1.37
2022-12-15T20:41:56.568Z,1.41
2022-12-15T20:44:24.891Z,1.45
2022-12-15T20:46:53.679Z,1.45
2022-12-15T20:49:22.784Z,1.44
2022-12-15T20:51:51.872Z,1.33
2022-12-15T20:54:22.529Z,1.26
2022-12-15T20:56:51.028Z,1.26
2022-12-15T20:59:19.509Z,1.25
2022-12-15T21:01:48.209Z,1.16
2022-12-15T21:04:25.032Z,1.22
2022-12-15T21:06:55.178Z,1.30
2022-12-15T21:09:24.636Z,1.33
2022-12-15T21:11:55.144Z,1.33
2022-12-15T21:14:24.658Z,1.35
2022-12-15T21:16:53.028Z,1.31
2022-12-15T21:19:22.568Z,1.25
2022-12-15T21:21:54.780Z,1.25
2022-12-15T21:24:27.047Z,1.29
2022-12-15T21:26:56.228Z,1.28
2022-12-15T21:29:28.764Z,1.21
2022-12-15T21:31:57.537Z,1.16
2022-12-15T21:34:25.872Z,1.20
2022-12-15T21:36:54.994Z,1.24
2022-12-15T21:39:31.090Z,1.26
2022-12-15T21:42:01.893Z,1.30
2022-12-15T21:44:30.299Z,1.36
2022-12-15T21:46:58.606Z,1.35
2022-12-15T21:49:27.265Z,1.37
2022-12-15T21:52:01.139Z,1.39
2022-12-15T21:54:35.187Z,1.37
2022-12-15T21:57:03.881Z,1.37
2022-12-15T21:59:32.986Z,1.38
2022-12-15T22:02:01.841Z,1.41
2022-12-15T22:04:33.603Z,1.47
2022-12-15T22:07:02.424Z,1.43
2022-12-15T22:09:30.666Z,1.41
2022-12-15T22:11:59.343Z,1.37
2022-12-15T22:14:33.871Z,1.36
2022-12-15T22:17:14.448Z,1.42
2022-12-15T22:19:42.750Z,1.57
2022-12-15T22:22:12.391Z,1.73
2022-12-15T22:24:41.000Z,1.85
2022-12-15T22:27:21.243Z,1.94
2022-12-15T22:29:50.484Z,2.03
2022-12-15T22:32:18.728Z,2.16
2022-12-15T22:34:47.157Z,2.28
2022-12-15T22:37:15.871Z,2.37
2022-12-15T22:39:44.192Z,2.46
2022-12-15T22:42:16.757Z,2.54
2022-12-15T22:44:45.850Z,2.61
2022-12-15T22:47:14.164Z,2.56
2022-12-15T22:49:42.699Z,2.42
2022-12-15T22:52:19.783Z,2.39
2022-12-15T22:54:48.598Z,2.38
2022-12-15T22:57:21.603Z,2.34
2022-12-15T23:00:05.764Z,2.36
2022-12-15T23:02:40.825Z,2.43
2022-12-15T23:05:12.058Z,2.48
2022-12-15T23:07:41.509Z,2.50
2022-12-15T23:10:31.207Z,2.50
2022-12-15T23:12:59.676Z,2.52
2022-12-15T23:15:47.726Z,2.55
2022-12-15T23:18:16.388Z,2.59
2022-12-15T23:20:44.602Z,2.58
2022-12-15T23:23:12.825Z,2.51
2022-12-15T23:25:41.234Z,2.44
2022-12-15T23:28:09.717Z,2.41
2022-12-15T23:30:38.112Z,2.38
2022-12-15T23:33:06.433Z,2.33
2022-12-15T23:35:35.772Z,2.20
2022-12-15T23:38:03.986Z,2.12
2022-12-15T23:40:32.313Z,2.10
2022-12-15T23:43:00.795Z,2.03
2022-12-15T23:45:29.267Z,1.89
2022-12-15T23:47:57.518Z,1.78
2022-12-15T23:50:25.737Z,1.70
2022-12-15T23:52:54.030Z,1.64
2022-12-15T23:55:23.114Z,1.68
2022-12-15T23:57:51.844Z,1.70
